LIPELOWI

Guest
Details From LIPE - BOLOGNA
To LOWI - Innsbruck Kranebitten
Flight Number -
Tags decoded
Created
Modified
Stats Distance 164 nm / 303 km
Max Altitude 0 ft / 0 m
Waypoints 3
Social Downloads 2
Likes 0
Share VATSIM

Download

Looking for another format? Having issues loading an existing format? Contact us
Advertisement - Login to hide

Notes

Requested: LIPE LUMAV UM726 BRENO LOWI Unmatched points: LUMAV UM726

Route

LIPE BRENO LOWI

ID Type Via Altitude Latitude Longitude Leg Dist Tot Dist Heading (true) Name
O LIPE APT - 0 ft / 0 m 44.53545˚ 11.28866˚ - 0 nm - BOLOGNA
BRENO FIX - 0 ft / 0 m 46.98000˚ 11.37667˚ 146 nm 146 nm 1° / 1° -
O LOWI APT - 0 ft / 0 m 47.26023˚ 11.34397˚ 16 nm 163 nm 355° / 355° Innsbruck Kranebitten

Altitude Profile

Advertisement - Login to hide

Weather


0- 5 10 15 20 25 30 35+ Temperature / ° C

Clouds and Precipitation
Forecast for 2018-05-27 12:00 UTC. Updated 5 hours ago

Ground ~20,000 ft ~40,000 ft Winds

LIPE

Details ICAO LIPE (BLQ)
Name BOLOGNA
Region Italy
Timezone Europe/Rome (UTC+2.0)
Stats Elevation 123 ft / 37 m (AMSL)
Location 44.535446° 11.288662°
Runways 1
Magnetic Variation 2.968° E

METAR

LIPE 271620Z 11009KT CAVOK 27/17 Q1015

Decode

TAF

TAF AMD LIPE 271312Z 2713/2812 09010KT 9999 SCT025 TEMPO 2714/2724 TSRA BECMG 2716/2718 VRB05KT

Decode

Departure Runways

ID Width Length Bearing (true) Bearing (mag) Surface Threshold Offset Overrun Length
12 148 ft / 45 m 9,185 ft / 2,800 m 116.78° 113.81° Asphalt 1,007 ft / 307 m 0 ft / 0 m
30 148 ft / 45 m 9,185 ft / 2,800 m 296.81° 293.84° Asphalt 1,188 ft / 362 m 200 ft / 61 m

LOWI

Details ICAO LOWI (INN)
Name Innsbruck Kranebitten
Region Austria
Timezone Europe/Vienna (UTC+2.0)
Stats Elevation 1,906 ft / 581 m (AMSL)
Location 47.260226° 11.343967°
Runways 1
Magnetic Variation 3.072° E

METAR

LOWI 271620Z 07005KT 030V110 9999 FEW070 BKN300 23/13 Q1019 NOSIG

Decode

TAF

TAF LOWI 271115Z 2712/2812 09005KT 9999 FEW060 SCT150 BKN250 TX28/2812Z TN14/2804Z TEMPO 2712/2718 09013KT TSRA SCT070 FEW070CB PROB30 TEMPO 2714/2719 VRB15G25KT TSGR SCT060CB BKN080 BECMG 2719/2721 VRB02KT CAVOK BECMG 2804/2806 27007KT BECMG 2809/2811 12012G25KT FEW070 BKN300

Decode

Destination Runways

ID Width Length Bearing (true) Bearing (mag) Surface Threshold Offset Overrun Length
08 148 ft / 45 m 6,545 ft / 1,995 m 81.02° 77.95° Asphalt 338 ft / 103 m 0 ft / 0 m
26 148 ft / 45 m 6,545 ft / 1,995 m 261.04° 257.97° Asphalt 0 ft / 0 m 0 ft / 0 m

Approach Navaids

Runway Type Ident Frequency Range Bearing (true) Bearing (mag) Slope Elevation
26 Localiser OEV 111.10 MHz 27 nm / 50 km 256.00° 252.93° - 1,906 ft / 581 m (AMSL)
26 Localiser OEJ 109.70 MHz 30 nm / 56 km 69.00° 65.93° - 1,906 ft / 581 m (AMSL)
26 Glidescope OEV 111.10 MHz 18 nm / 33 km 256.00° 252.93° 3.80° 1,911 ft / 582 m (AMSL)
26 DME OEJ 109.70 MHz 30 nm / 56 km - - - 1,906 ft / 581 m (AMSL)
26 DME OEV 111.10 MHz 27 nm / 50 km - - - 1,911 ft / 582 m (AMSL)

Popular Alternatives